createdAt,value
2019-05-18T00:01:09.989Z,96.30
2019-05-18T00:03:37.304Z,96.30
2019-05-18T00:06:04.752Z,96.30
2019-05-18T00:08:30.870Z,96.20
2019-05-18T00:10:58.286Z,96.40
2019-05-18T00:13:24.581Z,96.40
2019-05-18T00:15:50.665Z,96.30
2019-05-18T00:18:18.775Z,96.60
2019-05-18T00:20:44.966Z,96.80
2019-05-18T00:23:11.143Z,97.00
2019-05-18T00:25:37.641Z,96.90
2019-05-18T00:28:04.343Z,96.90
2019-05-18T00:30:30.963Z,96.80
2019-05-18T00:32:59.206Z,96.80
2019-05-18T00:35:26.485Z,96.80
2019-05-18T00:37:52.514Z,96.80
2019-05-18T00:40:18.886Z,96.80
2019-05-18T00:42:47.052Z,97.00
2019-05-18T00:45:13.546Z,97.10
2019-05-18T00:47:41.813Z,97.10
2019-05-18T00:50:08.537Z,97.20
2019-05-18T00:52:34.611Z,97.30
2019-05-18T00:55:00.693Z,97.30
2019-05-18T00:57:26.841Z,97.20
2019-05-18T00:59:53.787Z,97.00
2019-05-18T01:02:19.865Z,96.80
2019-05-18T01:04:47.853Z,96.90
2019-05-18T01:07:13.934Z,96.80
2019-05-18T01:09:40.002Z,96.90
2019-05-18T01:12:06.039Z,97.20
2019-05-18T01:14:32.340Z,97.50
2019-05-18T01:16:59.613Z,96.80
2019-05-18T01:19:25.691Z,96.60
2019-05-18T01:21:51.727Z,96.60
2019-05-18T01:24:18.628Z,96.70
2019-05-18T01:30:25.394Z,97.10
2019-05-18T01:32:51.505Z,97.40
2019-05-18T01:35:17.702Z,97.40
2019-05-18T01:37:43.768Z,97.70
2019-05-18T01:40:11.102Z,97.90
2019-05-18T01:42:37.162Z,97.70
2019-05-18T01:45:16.262Z,97.70
2019-05-18T01:47:35.789Z,97.60
2019-05-18T01:50:07.864Z,97.40
2019-05-18T01:52:36.058Z,97.40
2019-05-18T01:55:04.670Z,97.20
2019-05-18T01:57:32.480Z,97.30
2019-05-18T01:59:59.677Z,97.10
2019-05-18T02:02:26.239Z,97.10
2019-05-18T02:04:53.056Z,97.40
2019-05-18T02:07:21.084Z,97.40
2019-05-18T02:09:47.141Z,97.50
2019-05-18T02:12:13.200Z,97.30
2019-05-18T02:14:40.469Z,97.00
2019-05-18T02:17:08.359Z,97.20
2019-05-18T02:19:34.990Z,97.40
2019-05-18T02:22:02.068Z,97.60
2019-05-18T02:24:28.351Z,97.60
2019-05-18T02:26:55.869Z,97.60
2019-05-18T02:29:23.013Z,97.80
2019-05-18T02:32:00.791Z,98.20
2019-05-18T02:34:26.969Z,98.00
2019-05-18T02:36:54.891Z,98.00
2019-05-18T02:39:22.122Z,98.00
2019-05-18T02:41:48.419Z,98.10
2019-05-18T02:44:14.573Z,98.10
2019-05-18T02:46:40.619Z,98.30
2019-05-18T02:49:08.881Z,98.70
2019-05-18T02:51:35.013Z,98.80
2019-05-18T02:54:01.733Z,98.40
2019-05-18T02:56:28.329Z,97.90
2019-05-18T02:58:55.689Z,97.70
2019-05-18T03:01:23.032Z,97.70
2019-05-18T03:03:50.959Z,97.80
2019-05-18T03:06:17.202Z,97.80
2019-05-18T03:08:43.257Z,97.70
2019-05-18T03:11:10.228Z,97.60
2019-05-18T03:13:37.147Z,97.70
2019-05-18T03:16:03.513Z,97.70
2019-05-18T03:18:29.574Z,97.90
2019-05-18T03:20:55.602Z,97.50
2019-05-18T03:23:23.517Z,97.40
2019-05-18T03:25:51.798Z,97.40
2019-05-18T03:28:17.861Z,97.70
2019-05-18T03:30:45.086Z,97.70
2019-05-18T03:33:12.902Z,97.40
2019-05-18T03:35:39.935Z,97.30
2019-05-18T03:38:07.888Z,97.20
2019-05-18T03:40:35.216Z,97.30
2019-05-18T03:43:01.576Z,97.30
2019-05-18T03:45:28.668Z,97.40
2019-05-18T03:47:54.701Z,97.40
2019-05-18T03:50:20.763Z,97.40
2019-05-18T03:52:46.785Z,97.60
2019-05-18T03:55:12.956Z,97.80
2019-05-18T03:57:39.086Z,97.80
2019-05-18T04:00:05.710Z,97.70
2019-05-18T04:02:31.870Z,97.70
2019-05-18T04:04:58.128Z,97.80
2019-05-18T04:07:24.555Z,97.90
2019-05-18T04:09:50.583Z,97.80
2019-05-18T04:12:16.610Z,97.80
2019-05-18T04:14:42.952Z,97.80
2019-05-18T04:17:09.727Z,97.80
2019-05-18T04:19:46.589Z,97.70
2019-05-18T04:22:04.057Z,97.70
2019-05-18T04:24:31.593Z,97.50
2019-05-18T04:26:59.379Z,97.50
2019-05-18T04:29:25.534Z,97.60
2019-05-18T04:31:51.654Z,97.40
2019-05-18T04:34:18.723Z,97.40
2019-05-18T04:36:46.383Z,97.50
2019-05-18T04:39:12.412Z,97.70
2019-05-18T04:41:38.465Z,97.70
2019-05-18T04:44:04.492Z,97.80
2019-05-18T04:46:31.299Z,97.70
2019-05-18T04:49:04.930Z,97.80
2019-05-18T04:51:32.441Z,97.90
2019-05-18T04:53:59.888Z,97.90
2019-05-18T04:56:25.926Z,97.90
2019-05-18T04:58:53.227Z,97.90
2019-05-18T05:01:20.249Z,97.90
2019-05-18T05:03:46.751Z,98.10
2019-05-18T05:06:13.390Z,98.30
2019-05-18T05:08:40.201Z,98.20
2019-05-18T05:11:06.444Z,98.30
2019-05-18T05:13:32.471Z,98.50
2019-05-18T05:15:58.561Z,98.40
2019-05-18T05:18:24.586Z,98.60
2019-05-18T05:20:53.040Z,98.80
2019-05-18T05:23:19.064Z,98.60
2019-05-18T05:25:46.198Z,98.50
2019-05-18T05:28:13.027Z,98.70
2019-05-18T05:30:39.055Z,98.60
2019-05-18T05:33:05.088Z,98.80
2019-05-18T05:35:31.858Z,98.80
2019-05-18T05:37:57.878Z,98.80
2019-05-18T05:40:24.025Z,98.80
2019-05-18T05:42:50.053Z,98.70
2019-05-18T05:45:16.280Z,98.70
2019-05-18T05:47:42.988Z,98.50
2019-05-18T05:50:09.324Z,98.40
2019-05-18T05:52:36.424Z,98.40
2019-05-18T05:55:08.612Z,98.40
2019-05-18T05:57:35.809Z,98.30
2019-05-18T06:00:03.714Z,98.40
2019-05-18T06:02:29.733Z,98.30
2019-05-18T06:04:55.824Z,97.90
2019-05-18T06:07:27.819Z,97.40
2019-05-18T06:09:55.100Z,97.90
2019-05-18T06:12:21.166Z,97.90
2019-05-18T06:14:47.194Z,97.10
2019-05-18T06:17:14.170Z,96.40
2019-05-18T06:19:40.965Z,96.30
2019-05-18T06:22:09.445Z,97.50
2019-05-18T06:24:59.175Z,96.80
2019-05-18T06:27:25.411Z,96.40
2019-05-18T06:29:51.432Z,96.00
2019-05-18T06:32:18.671Z,96.50
2019-05-18T06:34:45.055Z,96.50
2019-05-18T06:37:12.238Z,96.10
2019-05-18T06:39:38.263Z,95.50
2019-05-18T06:42:04.666Z,96.20
2019-05-18T06:44:31.842Z,96.10
2019-05-18T06:46:57.877Z,96.10
2019-05-18T06:49:23.921Z,96.30
2019-05-18T06:51:49.949Z,95.70
2019-05-18T06:54:16.353Z,96.30
2019-05-18T06:56:43.513Z,96.10
2019-05-18T06:59:10.347Z,96.30
2019-05-18T07:01:36.418Z,95.60
2019-05-18T07:04:02.499Z,96.10
2019-05-18T07:06:28.532Z,94.40
2019-05-18T07:08:56.907Z,94.90
2019-05-18T07:11:22.933Z,94.50
2019-05-18T07:13:49.006Z,92.90
2019-05-18T07:16:15.643Z,92.70
2019-05-18T07:18:41.701Z,91.20
2019-05-18T07:21:21.442Z,92.30
2019-05-18T07:23:35.794Z,92.20
2019-05-18T07:26:02.061Z,90.80
2019-05-18T07:28:29.249Z,90.50
2019-05-18T07:31:01.474Z,91.00
2019-05-18T07:33:29.414Z,90.80
2019-05-18T07:35:58.243Z,91.30
2019-05-18T07:38:24.293Z,88.60
2019-05-18T07:40:50.321Z,88.00
2019-05-18T07:43:17.533Z,87.70
2019-05-18T07:45:43.610Z,88.80
2019-05-18T07:48:09.900Z,89.00
2019-05-18T07:50:35.941Z,87.60
2019-05-18T07:53:02.452Z,87.20
2019-05-18T07:55:34.740Z,86.80
2019-05-18T07:58:01.876Z,86.60
2019-05-18T08:00:27.937Z,85.80
2019-05-18T08:02:54.076Z,85.10
2019-05-18T08:05:20.516Z,85.70
2019-05-18T08:07:53.070Z,88.10
2019-05-18T08:10:36.079Z,86.10
2019-05-18T08:13:03.755Z,82.00
2019-05-18T08:15:32.062Z,84.80
2019-05-18T08:17:58.126Z,81.00
2019-05-18T08:20:24.159Z,80.70
2019-05-18T08:22:51.140Z,83.20
2019-05-18T08:25:17.184Z,80.70
2019-05-18T08:27:43.193Z,80.80
2019-05-18T08:30:12.080Z,82.50
2019-05-18T08:32:38.102Z,80.90
2019-05-18T08:35:05.166Z,83.10
2019-05-18T08:37:31.210Z,78.70
2019-05-18T08:39:57.780Z,79.70
2019-05-18T08:42:25.527Z,84.00
2019-05-18T08:44:52.977Z,80.60
2019-05-18T08:47:19.037Z,81.50
2019-05-18T08:49:46.177Z,77.40
2019-05-18T08:52:13.006Z,82.10
2019-05-18T08:54:40.516Z,79.60
2019-05-18T08:57:06.535Z,77.40
2019-05-18T08:59:32.588Z,75.40
2019-05-18T09:01:59.115Z,79.00
2019-05-18T09:04:27.449Z,75.00
2019-05-18T09:06:53.539Z,79.80
2019-05-18T09:09:19.604Z,79.50
2019-05-18T09:11:46.926Z,77.90
2019-05-18T09:14:12.950Z,74.70
2019-05-18T09:16:39.090Z,77.50
2019-05-18T09:19:05.578Z,75.90
2019-05-18T09:21:31.645Z,75.90
2019-05-18T09:23:58.190Z,73.90
2019-05-18T09:26:24.842Z,75.60
2019-05-18T09:28:51.392Z,72.70
2019-05-18T09:31:18.929Z,74.60
2019-05-18T09:33:45.045Z,75.90
2019-05-18T09:36:11.452Z,72.20
2019-05-18T09:38:38.808Z,73.20
2019-05-18T09:41:04.881Z,69.40
2019-05-18T09:43:30.939Z,74.00
2019-05-18T09:45:57.013Z,69.80
2019-05-18T09:48:23.412Z,67.70
2019-05-18T09:50:49.598Z,67.90
2019-05-18T09:53:16.804Z,72.90
2019-05-18T09:55:44.056Z,68.80
2019-05-18T09:58:10.145Z,70.90
2019-05-18T10:00:39.094Z,70.20
2019-05-18T10:03:06.665Z,71.30
2019-05-18T10:05:33.546Z,74.80
2019-05-18T10:08:00.726Z,68.50
2019-05-18T10:10:26.923Z,69.00
2019-05-18T10:12:52.993Z,69.20
2019-05-18T10:15:20.715Z,67.80
2019-05-18T10:17:46.739Z,69.40
2019-05-18T10:20:13.405Z,67.00
2019-05-18T10:22:53.384Z,66.10
2019-05-18T10:25:09.612Z,65.50
2019-05-18T10:27:35.966Z,65.00
2019-05-18T10:30:05.733Z,59.90
2019-05-18T10:32:32.263Z,63.90
2019-05-18T10:34:58.517Z,61.00
2019-05-18T10:37:25.380Z,70.00
2019-05-18T10:39:51.436Z,65.70
2019-05-18T10:42:17.502Z,61.20
2019-05-18T10:44:43.558Z,61.00
2019-05-18T10:47:09.653Z,59.10
2019-05-18T10:49:37.327Z,60.20
2019-05-18T10:52:05.025Z,57.60
2019-05-18T10:54:31.799Z,65.10
2019-05-18T10:56:58.661Z,64.80
2019-05-18T10:59:24.690Z,60.60
2019-05-18T11:01:50.717Z,59.40
2019-05-18T11:04:16.931Z,63.50
2019-05-18T11:06:42.989Z,59.40
2019-05-18T11:09:09.059Z,62.80
2019-05-18T11:11:35.218Z,59.20
2019-05-18T11:14:01.449Z,57.70
2019-05-18T11:16:27.523Z,57.30
2019-05-18T11:18:53.553Z,57.30
2019-05-18T11:21:19.625Z,58.50
2019-05-18T11:23:48.092Z,59.00
2019-05-18T11:26:15.754Z,59.20
2019-05-18T11:28:41.892Z,61.40
2019-05-18T11:31:07.928Z,57.20
2019-05-18T11:33:34.822Z,57.90
2019-05-18T11:36:00.873Z,61.30
2019-05-18T11:38:27.938Z,58.90
2019-05-18T11:40:54.485Z,61.20
2019-05-18T11:43:21.023Z,60.10
2019-05-18T11:45:48.309Z,57.10
2019-05-18T11:48:14.344Z,59.80
2019-05-18T11:50:40.501Z,57.40
2019-05-18T11:53:06.542Z,57.20
2019-05-18T11:55:32.602Z,56.80
2019-05-18T11:57:59.228Z,56.80
2019-05-18T12:00:28.385Z,55.90
2019-05-18T12:02:54.670Z,55.30
2019-05-18T12:05:20.730Z,56.40
2019-05-18T12:07:47.673Z,53.70
2019-05-18T12:10:18.253Z,55.20
2019-05-18T12:12:43.364Z,55.10
2019-05-18T12:15:10.518Z,53.80
2019-05-18T12:17:36.555Z,53.30
2019-05-18T12:20:04.755Z,51.80
2019-05-18T12:22:31.366Z,50.90
2019-05-18T12:24:58.224Z,53.00
2019-05-18T12:27:24.470Z,55.70
2019-05-18T12:29:51.492Z,53.00
2019-05-18T12:32:18.347Z,50.90
2019-05-18T12:34:45.407Z,52.20
2019-05-18T12:37:14.324Z,51.70
2019-05-18T12:39:40.359Z,52.70
2019-05-18T12:42:07.779Z,50.80
2019-05-18T12:44:33.925Z,53.10
2019-05-18T12:47:00.917Z,53.10
2019-05-18T12:49:27.090Z,54.50
2019-05-18T12:51:53.136Z,51.90
2019-05-18T12:54:29.143Z,50.60
2019-05-18T12:56:47.170Z,50.00
2019-05-18T12:59:15.148Z,51.10
2019-05-18T13:01:41.204Z,53.00
2019-05-18T13:04:08.892Z,52.40
2019-05-18T13:06:35.101Z,53.80
2019-05-18T13:09:02.774Z,49.20
2019-05-18T13:11:30.157Z,52.00
2019-05-18T13:13:56.218Z,53.30
2019-05-18T13:16:23.500Z,54.80
2019-05-18T13:18:49.530Z,55.40
2019-05-18T13:21:15.700Z,53.10
2019-05-18T13:23:47.246Z,49.60
2019-05-18T13:26:15.146Z,48.70
2019-05-18T13:28:41.173Z,50.10
2019-05-18T13:31:07.247Z,45.70
2019-05-18T13:33:33.310Z,49.20
2019-05-18T13:36:00.849Z,50.00
2019-05-18T13:38:26.905Z,47.90
2019-05-18T13:40:53.096Z,50.80
2019-05-18T13:43:19.320Z,48.10
2019-05-18T13:45:46.165Z,51.10
2019-05-18T13:48:12.327Z,49.60
2019-05-18T13:50:40.397Z,50.80
2019-05-18T13:53:06.569Z,50.00
2019-05-18T13:55:34.188Z,47.30
2019-05-18T13:58:00.218Z,47.60
2019-05-18T14:00:27.878Z,46.80
2019-05-18T14:02:53.905Z,47.20
2019-05-18T14:05:20.220Z,44.00
2019-05-18T14:07:46.318Z,45.90
2019-05-18T14:10:12.915Z,50.50
2019-05-18T14:12:39.067Z,50.00
2019-05-18T14:15:06.430Z,45.40
2019-05-18T14:17:32.535Z,45.90
2019-05-18T14:19:59.347Z,45.70
2019-05-18T14:22:25.378Z,47.80
2019-05-18T14:24:51.458Z,45.90
2019-05-18T14:27:17.486Z,44.80
2019-05-18T14:29:43.571Z,44.80
2019-05-18T14:32:11.129Z,44.80
2019-05-18T14:34:37.332Z,44.30
2019-05-18T14:37:03.401Z,44.30
2019-05-18T14:39:29.550Z,46.00
2019-05-18T14:41:56.013Z,44.50
2019-05-18T14:44:22.082Z,42.80
2019-05-18T14:46:49.249Z,44.70
2019-05-18T14:49:15.487Z,44.80
2019-05-18T14:51:41.716Z,43.70
2019-05-18T14:54:08.358Z,43.20
2019-05-18T14:56:34.383Z,44.80
2019-05-18T14:59:00.451Z,42.40
2019-05-18T15:01:26.478Z,43.70
2019-05-18T15:03:52.623Z,44.80
2019-05-18T15:06:18.650Z,43.80
2019-05-18T15:08:44.720Z,44.40
2019-05-18T15:11:10.951Z,45.20
2019-05-18T15:13:36.973Z,45.60
2019-05-18T15:16:03.050Z,45.80
2019-05-18T15:18:29.082Z,45.50
2019-05-18T15:20:55.147Z,44.40
2019-05-18T15:23:21.417Z,44.60
2019-05-18T15:25:51.114Z,44.00
2019-05-18T15:28:16.940Z,45.00
2019-05-18T15:30:42.970Z,44.10
2019-05-18T15:33:09.055Z,45.30
2019-05-18T15:35:35.203Z,44.00
2019-05-18T15:38:01.228Z,44.90
2019-05-18T15:40:29.134Z,46.40
2019-05-18T15:42:57.036Z,46.20
2019-05-18T15:45:24.842Z,46.40
2019-05-18T15:47:51.258Z,47.10
2019-05-18T15:50:18.154Z,46.80
2019-05-18T15:52:44.556Z,47.10
2019-05-18T15:55:11.148Z,46.80
2019-05-18T15:57:37.435Z,47.10
2019-05-18T16:00:06.837Z,47.20
2019-05-18T16:02:34.185Z,45.90
2019-05-18T16:05:01.531Z,47.40
2019-05-18T16:07:27.735Z,44.10
2019-05-18T16:09:54.828Z,43.90
2019-05-18T16:12:20.863Z,44.30
2019-05-18T16:14:46.898Z,43.80
2019-05-18T16:17:13.064Z,44.20
2019-05-18T16:19:40.772Z,45.20
2019-05-18T16:22:06.856Z,45.50
2019-05-18T16:24:33.944Z,44.60
2019-05-18T16:27:00.058Z,46.30
2019-05-18T16:29:26.525Z,46.50
2019-05-18T16:31:52.611Z,46.50
2019-05-18T16:34:18.823Z,46.20
2019-05-18T16:36:46.431Z,47.90
2019-05-18T16:39:13.637Z,47.90
2019-05-18T16:41:39.710Z,48.10
2019-05-18T16:44:05.772Z,48.80
2019-05-18T16:46:32.598Z,48.60
2019-05-18T16:48:59.851Z,49.30
2019-05-18T16:51:26.333Z,49.90
2019-05-18T16:53:53.014Z,49.70
2019-05-18T16:56:19.054Z,48.40
2019-05-18T16:58:45.523Z,48.60
2019-05-18T17:01:11.731Z,49.00
2019-05-18T17:03:37.817Z,49.40
2019-05-18T17:06:03.955Z,50.00
2019-05-18T17:08:30.423Z,49.80
2019-05-18T17:11:00.846Z,50.10
2019-05-18T17:13:28.622Z,49.50
2019-05-18T17:15:55.829Z,50.20
